Time;durP1;ratioP1;P1;durP2;ratioP2;P2;SDS_P1;SDS_P2;PMS_P1;PMS_P2;Temp;Humidity;BMP_temperature;BMP_pressure;BME280_temperature;BME280_humidity;BME280_pressure;Samples;Min_cycle;Max_cycle;Signal;HPM_P1;HPM_P2
2022/06/09 00:01:49;;;;;;;7.63;2.17;;;;;;;11.94;100.00;94943.25;5024650;28;20037;-74
2022/06/09 00:04:20;;;;;;;4.20;2.15;;;;;;;12.01;100.00;94948.13;5042653;28;20038;-75
2022/06/09 00:06:48;;;;;;;9.45;2.75;;;;;;;11.97;100.00;94953.22;5029240;28;20049;-75
2022/06/09 00:09:17;;;;;;;5.22;1.90;;;;;;;12.02;100.00;94944.41;5031532;28;20042;-74
2022/06/09 00:11:47;;;;;;;2.90;1.95;;;;;;;12.01;100.00;94948.91;5024233;28;20492;-74
2022/06/09 00:14:13;;;;;;;3.13;2.00;;;;;;;11.89;100.00;94949.34;5029134;28;20033;-73
2022/06/09 00:16:38;;;;;;;8.25;2.42;;;;;;;11.93;100.00;94942.44;5029926;28;20042;-74
2022/06/09 00:19:05;;;;;;;5.35;2.20;;;;;;;11.91;100.00;94949.84;5031636;28;20507;-74
2022/06/09 00:21:32;;;;;;;7.20;2.47;;;;;;;12.01;100.00;94942.84;5027726;28;20042;-74
2022/06/09 00:23:58;;;;;;;5.13;2.10;;;;;;;12.02;100.00;94950.47;5030674;28;20400;-74
2022/06/09 00:26:24;;;;;;;4.28;2.15;;;;;;;11.98;100.00;94948.72;5030981;28;20042;-74
2022/06/09 00:28:50;;;;;;;4.53;1.98;;;;;;;12.01;100.00;94958.66;5030172;28;20050;-75
2022/06/09 00:31:15;;;;;;;3.20;2.17;;;;;;;12.09;100.00;94947.44;5027844;28;20049;-75
2022/06/09 00:33:40;;;;;;;3.78;2.17;;;;;;;12.09;100.00;94956.13;5029214;28;20041;-75
2022/06/09 00:36:06;;;;;;;6.53;2.42;;;;;;;12.05;100.00;94959.66;5019049;28;20079;-75
2022/06/09 00:38:32;;;;;;;5.00;2.20;;;;;;;12.09;100.00;94950.84;5028723;28;20038;-74
2022/06/09 00:40:59;;;;;;;4.30;2.53;;;;;;;12.12;100.00;94957.41;5030673;28;20050;-75
2022/06/09 00:43:32;;;;;;;7.18;2.83;;;;;;;12.16;100.00;94966.31;5027195;28;20550;-75
2022/06/09 00:46:03;;;;;;;10.20;3.00;;;;;;;12.12;100.00;94965.31;5024149;28;20049;-75
2022/06/09 00:48:40;;;;;;;4.95;2.75;;;;;;;12.09;100.00;94955.38;5027923;28;20499;-75
2022/06/09 00:51:30;;;;;;;5.22;2.80;;;;;;;12.15;100.00;94964.75;5028899;28;20052;-75
2022/06/09 00:54:16;;;;;;;8.38;2.80;;;;;;;12.22;100.00;94964.34;5030514;28;20052;-75
2022/06/09 00:56:48;;;;;;;6.20;2.75;;;;;;;12.22;100.00;94954.56;5026841;28;20065;-75
2022/06/09 00:59:16;;;;;;;8.57;2.75;;;;;;;12.22;100.00;94954.56;5028530;28;20091;-75
2022/06/09 01:01:43;;;;;;;6.90;2.67;;;;;;;12.25;100.00;94959.25;5030990;28;20064;-76
2022/06/09 01:04:13;;;;;;;5.43;2.72;;;;;;;12.26;100.00;94962.69;5028075;28;20037;-75
2022/06/09 01:06:42;;;;;;;9.25;2.95;;;;;;;12.21;100.00;94950.41;5026386;28;20098;-75
2022/06/09 01:09:26;;;;;;;4.18;2.70;;;;;;;12.35;100.00;94963.56;5028718;28;20124;-76
2022/06/09 01:11:54;;;;;;;7.05;3.17;;;;;;;12.39;100.00;94963.78;5021513;28;20046;-74
2022/06/09 01:14:24;;;;;;;5.72;2.80;;;;;;;12.42;100.00;94963.19;5029126;28;20443;-74
2022/06/09 01:17:15;;;;;;;6.05;2.88;;;;;;;12.52;100.00;94973.53;5029919;28;20054;-74
2022/06/09 01:20:04;;;;;;;5.28;2.85;;;;;;;12.47;100.00;94971.03;5029239;28;20107;-74
2022/06/09 01:22:36;;;;;;;10.15;3.13;;;;;;;12.46;100.00;94964.16;5029775;28;20124;-74
2022/06/09 01:25:23;;;;;;;8.75;2.97;;;;;;;12.48;100.00;94967.28;5029134;28;20060;-74
2022/06/09 01:28:27;;;;;;;6.55;2.90;;;;;;;12.50;100.00;94972.25;5027098;28;20112;-74
2022/06/09 01:30:55;;;;;;;11.63;3.28;;;;;;;12.53;100.00;94974.31;4934748;28;20063;-74
2022/06/09 01:33:56;;;;;;;7.22;3.47;;;;;;;12.54;100.00;94981.97;5030880;28;20041;-74
2022/06/09 01:36:36;;;;;;;8.27;3.53;;;;;;;12.54;100.00;94976.69;5023942;28;20424;-74
2022/06/09 01:39:03;;;;;;;7.40;3.53;;;;;;;12.52;100.00;94973.53;5029028;28;20071;-74
2022/06/09 01:41:29;;;;;;;9.02;3.78;;;;;;;12.59;100.00;94973.94;5027674;28;20038;-74
2022/06/09 01:43:56;;;;;;;5.32;3.38;;;;;;;12.64;100.00;94975.66;5022819;28;20482;-74
2022/06/09 01:46:30;;;;;;;9.02;3.40;;;;;;;12.63;100.00;94974.91;5028924;28;20046;-74
2022/06/09 01:49:01;;;;;;;5.60;3.05;;;;;;;12.63;100.00;94974.13;5029965;28;20048;-74
2022/06/09 01:51:31;;;;;;;6.07;3.50;;;;;;;12.72;100.00;94967.06;5023169;28;20042;-74
2022/06/09 01:54:20;;;;;;;7.05;3.50;;;;;;;12.68;100.00;94970.59;5030034;28;20041;-74
2022/06/09 01:56:51;;;;;;;7.70;3.20;;;;;;;12.71;100.00;94975.28;5029949;28;20197;-74
2022/06/09 01:59:28;;;;;;;8.05;3.60;;;;;;;12.71;100.00;94967.38;5027856;28;20045;-75
2022/06/09 02:01:59;;;;;;;9.55;3.55;;;;;;;12.70;100.00;94969.22;5029452;28;20092;-75
2022/06/09 02:04:33;;;;;;;9.45;3.63;;;;;;;12.77;100.00;94966.19;5028649;28;20045;-74
2022/06/09 02:07:02;;;;;;;7.20;3.77;;;;;;;12.74;100.00;94964.13;5025673;28;20037;-74
2022/06/09 02:09:30;;;;;;;7.32;3.40;;;;;;;12.68;100.00;94965.31;5028859;28;20298;-75
2022/06/09 02:11:57;;;;;;;10.63;3.83;;;;;;;12.70;100.00;94965.78;5027674;28;20048;-74
2022/06/09 02:14:27;;;;;;;8.63;3.70;;;;;;;12.56;100.00;94969.25;5029532;28;20157;-74
2022/06/09 02:16:54;;;;;;;6.47;3.78;;;;;;;12.63;100.00;94969.63;5029156;28;20049;-74
2022/06/09 02:19:19;;;;;;;8.30;3.67;;;;;;;12.60;100.00;94964.94;5029429;28;20105;-74
2022/06/09 02:21:45;;;;;;;10.45;4.55;;;;;;;12.60;100.00;94961.53;5023670;28;20046;-74
2022/06/09 02:24:10;;;;;;;7.28;3.85;;;;;;;12.69;100.00;94972.16;5028946;28;20068;-74
2022/06/09 02:26:36;;;;;;;6.75;3.83;;;;;;;12.62;100.00;94970.69;5029621;28;20097;-74
2022/06/09 02:29:03;;;;;;;8.75;3.72;;;;;;;12.63;100.00;94974.13;5028243;28;20411;-74
2022/06/09 02:31:28;;;;;;;8.85;3.55;;;;;;;12.60;100.00;94970.22;5022327;28;20048;-75
2022/06/09 02:33:54;;;;;;;8.05;4.07;;;;;;;12.51;100.00;94965.91;5028725;28;20038;-74
2022/06/09 02:36:20;;;;;;;5.95;3.60;;;;;;;12.61;100.00;94976.28;5029288;28;20076;-74
2022/06/09 02:38:46;;;;;;;9.95;3.65;;;;;;;12.53;100.00;94975.13;5026478;28;20499;-74
2022/06/09 02:41:12;;;;;;;5.40;3.45;;;;;;;12.43;100.00;94972.69;5014848;28;20492;-74
2022/06/09 02:43:37;;;;;;;10.98;3.90;;;;;;;12.43;100.00;94973.44;5025176;28;20125;-75
2022/06/09 02:46:04;;;;;;;7.65;4.30;;;;;;;12.46;100.00;94974.72;5028467;28;20097;-74
2022/06/09 02:48:30;;;;;;;5.85;3.92;;;;;;;12.40;100.00;94968.00;5028400;28;20037;-74
2022/06/09 02:50:56;;;;;;;6.97;3.78;;;;;;;12.43;100.00;94975.31;5022528;28;20045;-74
2022/06/09 02:53:23;;;;;;;10.45;4.10;;;;;;;12.46;100.00;94980.00;5025618;28;20037;-74
2022/06/09 02:55:49;;;;;;;8.00;3.65;;;;;;;12.31;100.00;94983.69;5028556;28;20060;-74
2022/06/09 02:58:15;;;;;;;8.00;3.90;;;;;;;12.40;100.00;94981.19;5028462;28;20757;-75
2022/06/09 03:00:41;;;;;;;6.45;3.65;;;;;;;12.38;100.00;94985.97;5024457;28;20140;-75
2022/06/09 03:03:10;;;;;;;12.05;3.80;;;;;;;12.51;100.00;94985.16;5028252;28;20129;-75
2022/06/09 03:05:36;;;;;;;7.93;4.03;;;;;;;12.41;100.00;94980.09;5026047;28;20041;-75
2022/06/09 03:08:06;;;;;;;8.38;3.50;;;;;;;12.37;100.00;94987.03;5022604;28;20033;-75
2022/06/09 03:10:33;;;;;;;7.30;3.80;;;;;;;12.35;100.00;94994.47;5021397;28;20091;-75
2022/06/09 03:12:59;;;;;;;8.23;3.75;;;;;;;12.43;100.00;94985.88;5023190;28;20041;-75
2022/06/09 03:15:25;;;;;;;5.55;3.50;;;;;;;12.43;100.00;94997.19;5027883;28;20120;-75
2022/06/09 03:17:51;;;;;;;8.15;3.60;;;;;;;12.39;100.00;94995.44;5028884;28;20120;-75
2022/06/09 03:20:21;;;;;;;8.75;3.78;;;;;;;12.38;100.00;95001.78;5022592;28;20117;-75
2022/06/09 03:22:47;;;;;;;6.28;3.30;;;;;;;12.35;100.00;94999.75;5029431;28;20038;-75
2022/06/09 03:25:12;;;;;;;6.80;3.22;;;;;;;12.47;100.00;94992.13;5028162;28;20141;-75
2022/06/09 03:27:39;;;;;;;6.05;3.13;;;;;;;12.42;100.00;95000.91;5028561;28;20132;-75
2022/06/09 03:30:05;;;;;;;6.55;3.38;;;;;;;12.37;100.00;94998.38;5024767;28;20041;-75
2022/06/09 03:32:31;;;;;;;8.57;3.58;;;;;;;12.40;100.00;95007.56;5028595;28;20064;-74
2022/06/09 03:34:56;;;;;;;8.43;3.50;;;;;;;12.29;100.00;94996.41;5027898;28;20109;-75
2022/06/09 03:37:23;;;;;;;9.05;3.97;;;;;;;12.40;100.00;95004.94;5026577;28;20116;-75
2022/06/09 03:39:49;;;;;;;10.27;3.65;;;;;;;12.34;100.00;95000.81;5023985;28;20049;-75
2022/06/09 03:42:14;;;;;;;8.18;3.72;;;;;;;12.33;100.00;95007.19;5040012;28;20539;-75
2022/06/09 03:44:40;;;;;;;7.82;3.65;;;;;;;12.18;100.00;94998.44;5031522;28;20068;-75
2022/06/09 03:47:05;;;;;;;7.50;3.70;;;;;;;12.26;100.00;95003.03;5030693;28;20048;-75
2022/06/09 03:49:31;;;;;;;8.15;3.78;;;;;;;12.37;100.00;95002.84;5030554;28;20064;-75
2022/06/09 03:51:56;;;;;;;8.45;3.60;;;;;;;12.41;100.00;94998.56;5029996;28;20128;-76
2022/06/09 03:54:22;;;;;;;9.48;3.55;;;;;;;12.37;100.00;95002.84;5032236;28;20042;-76
2022/06/09 03:56:48;;;;;;;7.40;3.78;;;;;;;12.37;100.00;95016.03;5031698;28;20076;-76
2022/06/09 03:59:14;;;;;;;10.73;3.78;;;;;;;12.42;100.00;95010.69;5025850;28;20041;-76
2022/06/09 04:01:39;;;;;;;5.15;3.22;;;;;;;12.38;100.00;95017.63;5026968;28;20788;-76
2022/06/09 04:04:06;;;;;;;8.02;3.65;;;;;;;12.42;100.00;95022.00;5031540;28;20124;-76
2022/06/09 04:06:33;;;;;;;12.43;3.83;;;;;;;12.42;100.00;95024.66;5031845;28;20606;-76
2022/06/09 04:08:58;;;;;;;11.38;3.58;;;;;;;12.51;100.00;95023.97;5030388;28;20056;-76
2022/06/09 04:11:24;;;;;;;9.32;3.45;;;;;;;12.44;100.00;95029.63;5027252;28;20034;-76
2022/06/09 04:13:50;;;;;;;7.82;3.67;;;;;;;12.54;100.00;95024.19;5027524;28;20053;-76
2022/06/09 04:16:23;;;;;;;7.93;3.15;;;;;;;12.50;100.00;95033.75;5031797;28;20753;-75
2022/06/09 04:18:48;;;;;;;6.03;3.35;;;;;;;12.49;100.00;95032.19;5029655;28;20049;-75
2022/06/09 04:21:14;;;;;;;8.15;3.17;;;;;;;12.52;100.00;95034.25;5030609;28;20056;-75
2022/06/09 04:23:39;;;;;;;5.28;2.95;;;;;;;12.51;100.00;95035.31;5029802;28;20033;-75
2022/06/09 04:26:05;;;;;;;6.63;3.00;;;;;;;12.56;100.00;95035.22;5032302;28;20050;-75
2022/06/09 04:28:30;;;;;;;9.45;3.30;;;;;;;12.55;100.00;95041.56;5029148;28;20113;-76
2022/06/09 04:30:56;;;;;;;5.43;3.33;;;;;;;12.46;100.00;95046.75;5029299;28;20041;-75
2022/06/09 04:33:21;;;;;;;5.28;3.25;;;;;;;12.61;100.00;95045.69;5029439;28;20037;-75
2022/06/09 04:35:47;;;;;;;5.40;3.05;;;;;;;12.64;100.00;95047.75;5031548;28;20108;-75
2022/06/09 04:38:12;;;;;;;5.18;3.17;;;;;;;12.54;100.00;95050.59;5027635;28;20042;-75
2022/06/09 04:40:40;;;;;;;5.82;3.08;;;;;;;12.57;100.00;95043.91;5020145;28;20046;-75
2022/06/09 04:43:11;;;;;;;7.43;3.15;;;;;;;12.55;100.00;95052.13;5024634;28;20546;-75
2022/06/09 04:45:38;;;;;;;6.25;3.33;;;;;;;12.48;100.00;95051.72;5031114;28;20069;-75
2022/06/09 04:48:04;;;;;;;7.25;3.13;;;;;;;12.54;100.00;95039.22;5031225;28;20033;-75
2022/06/09 04:50:31;;;;;;;5.97;3.30;;;;;;;12.57;100.00;95049.19;5029586;28;20046;-75
2022/06/09 04:52:57;;;;;;;6.22;3.35;;;;;;;12.61;100.00;95050.97;5028915;28;20503;-75
2022/06/09 04:55:23;;;;;;;4.57;3.00;;;;;;;12.54;100.00;95050.59;5030805;28;20073;-75
2022/06/09 04:57:49;;;;;;;7.60;3.20;;;;;;;12.63;100.00;95069.16;5030610;28;20045;-75
2022/06/09 05:00:16;;;;;;;7.53;2.90;;;;;;;12.55;100.00;95057.41;5025877;28;20100;-76
2022/06/09 05:02:42;;;;;;;8.18;3.42;;;;;;;12.62;100.00;95063.09;5030692;28;20034;-75
2022/06/09 05:05:16;;;;;;;5.15;3.00;;;;;;;12.65;100.00;95067.78;5030546;28;20041;-75
2022/06/09 05:07:42;;;;;;;6.28;3.45;;;;;;;12.65;100.00;95067.78;5027344;28;20503;-75
2022/06/09 05:10:08;;;;;;;5.38;3.10;;;;;;;12.69;100.00;95059.28;5028921;28;20069;-75
2022/06/09 05:12:34;;;;;;;6.57;3.28;;;;;;;12.59;100.00;95063.66;5026523;28;20597;-76
2022/06/09 05:14:59;;;;;;;7.60;3.10;;;;;;;12.56;100.00;95064.25;5029978;28;20038;-75
2022/06/09 05:17:25;;;;;;;7.15;3.13;;;;;;;12.51;100.00;95069.63;5029790;28;20114;-76
2022/06/09 05:19:50;;;;;;;8.68;3.15;;;;;;;12.47;100.00;95071.31;5026403;28;20045;-75
2022/06/09 05:22:16;;;;;;;5.30;3.40;;;;;;;12.51;100.00;95066.97;5028832;28;20037;-76
2022/06/09 05:24:41;;;;;;;6.95;3.20;;;;;;;12.51;100.00;95072.25;5030374;28;20041;-75
2022/06/09 05:27:07;;;;;;;6.10;3.22;;;;;;;12.56;100.00;95074.81;5030502;28;20076;-75
2022/06/09 05:29:32;;;;;;;6.45;3.33;;;;;;;12.61;100.00;95082.66;5028737;28;20049;-76
2022/06/09 05:31:58;;;;;;;8.90;3.20;;;;;;;12.60;100.00;95078.44;5030211;28;21145;-76
2022/06/09 05:34:23;;;;;;;5.32;3.08;;;;;;;12.71;100.00;95080.88;5030901;28;20036;-75
2022/06/09 05:36:49;;;;;;;5.72;3.30;;;;;;;12.67;100.00;95082.53;5029599;28;20064;-75
2022/06/09 05:44:51;;;;;;;5.07;3.08;;;;;;;12.86;100.00;95099.09;5029946;28;20454;-76
2022/06/09 05:47:19;;;;;;;;;;;;;;;12.88;100.00;95096.91;5029900;28;20037;-76
2022/06/09 05:49:47;;;;;;;4.85;2.63;;;;;;;12.83;100.00;95099.69;5029320;28;19921;-76
2022/06/09 05:52:23;;;;;;;5.45;3.10;;;;;;;12.94;100.00;95095.78;5029114;28;20164;-76
2022/06/09 05:54:49;;;;;;;5.35;3.08;;;;;;;12.87;100.00;95095.34;5024816;28;20048;-76
2022/06/09 05:57:15;;;;;;;8.93;3.28;;;;;;;12.81;100.00;95107.09;5029484;28;20086;-76
2022/06/09 05:59:41;;;;;;;5.20;3.33;;;;;;;12.82;100.00;95103.38;5023133;28;20046;-76
2022/06/09 06:02:08;;;;;;;5.43;3.40;;;;;;;12.79;100.00;95101.34;5030666;28;20047;-73
2022/06/09 06:04:34;;;;;;;7.38;3.00;;;;;;;12.91;100.00;95109.53;5029253;28;20049;-74
2022/06/09 06:07:00;;;;;;;11.57;2.97;;;;;;;12.88;100.00;95109.34;5029835;28;20049;-73
2022/06/09 06:09:25;;;;;;;7.90;3.20;;;;;;;12.91;100.00;95112.19;5026473;28;20045;-74
2022/06/09 06:11:51;;;;;;;7.15;3.00;;;;;;;12.92;100.00;95108.47;5023962;28;20493;-74
2022/06/09 06:14:18;;;;;;;8.85;3.15;;;;;;;12.79;100.00;95114.53;5028089;28;20037;-76
2022/06/09 06:16:44;;;;;;;8.20;3.30;;;;;;;12.75;100.00;95118.84;5025717;28;20041;-76
2022/06/09 06:19:12;;;;;;;14.80;3.90;;;;;;;12.78;100.00;95118.25;5028968;28;20584;-77
2022/06/09 06:21:39;;;;;;;7.88;3.47;;;;;;;12.74;100.00;95122.53;5023761;28;20033;-77
2022/06/09 06:24:05;;;;;;;6.65;3.10;;;;;;;12.73;100.00;95128.88;5027021;28;20111;-75
2022/06/09 06:26:32;;;;;;;7.03;2.88;;;;;;;12.75;100.00;95129.41;5028733;28;20059;-76
2022/06/09 06:28:57;;;;;;;8.63;3.42;;;;;;;12.73;100.00;95126.25;5028844;28;20053;-76
2022/06/09 06:31:23;;;;;;;7.55;3.38;;;;;;;12.83;100.00;95131.38;5024186;28;20034;-75
2022/06/09 06:33:48;;;;;;;8.00;3.00;;;;;;;12.79;100.00;95135.66;5027480;28;20518;-75
2022/06/09 06:36:14;;;;;;;8.23;3.22;;;;;;;12.82;100.00;95138.47;5028264;28;20040;-75
2022/06/09 06:38:40;;;;;;;8.18;3.28;;;;;;;12.80;100.00;95142.47;5027378;28;20038;-75
2022/06/09 06:41:07;;;;;;;6.80;3.33;;;;;;;12.69;100.00;95143.78;5025764;28;20033;-76
2022/06/09 06:43:33;;;;;;;7.85;3.38;;;;;;;12.74;100.00;95147.09;5022884;28;20037;-76
2022/06/09 06:46:00;;;;;;;10.77;3.35;;;;;;;12.77;100.00;95153.63;5027767;28;20045;-75
2022/06/09 06:48:25;;;;;;;10.05;3.35;;;;;;;12.72;100.00;95151.09;5027050;28;20041;-76
2022/06/09 06:50:50;;;;;;;9.70;3.92;;;;;;;12.87;100.00;95147.38;5026785;28;20033;-77
2022/06/09 06:53:16;;;;;;;15.13;4.03;;;;;;;13.01;100.00;95158.75;5028646;28;20052;-76
2022/06/09 06:55:42;;;;;;;8.32;3.50;;;;;;;13.05;100.00;95149.16;5027679;28;20549;-76
2022/06/09 06:58:08;;;;;;;9.52;3.70;;;;;;;13.06;100.00;95149.94;5022162;28;20561;-77
2022/06/09 07:00:34;;;;;;;7.55;3.45;;;;;;;13.28;100.00;95147.41;5027007;28;20045;-75
2022/06/09 07:03:00;;;;;;;7.22;3.65;;;;;;;13.30;100.00;95155.81;5027835;28;20045;-76
2022/06/09 07:05:25;;;;;;;6.07;3.50;;;;;;;13.37;100.00;95159.94;5026186;28;20045;-77
2022/06/09 07:07:51;;;;;;;6.38;3.15;;;;;;;13.33;100.00;95160.53;5019638;28;20045;-76
2022/06/09 07:10:18;;;;;;;6.72;3.22;;;;;;;13.35;100.00;95154.97;5024812;28;20046;-76
2022/06/09 07:12:44;;;;;;;7.38;3.13;;;;;;;13.39;100.00;95163.06;5023431;28;20046;-76
2022/06/09 07:15:13;;;;;;;6.82;2.90;;;;;;;13.41;100.00;95166.22;5024763;28;20045;-75
2022/06/09 07:17:39;;;;;;;9.60;2.78;;;;;;;13.40;100.00;95164.66;5027794;28;20041;-75
2022/06/09 07:20:06;;;;;;;6.70;3.33;;;;;;;13.49;100.00;95165.53;5024089;28;20061;-75
2022/06/09 07:22:31;;;;;;;8.02;3.40;;;;;;;13.40;100.00;95164.66;5021314;28;20041;-75
2022/06/09 07:24:57;;;;;;;6.50;2.97;;;;;;;13.58;100.00;95166.38;5026862;28;20042;-76
2022/06/09 07:27:24;;;;;;;6.28;3.42;;;;;;;13.62;100.00;95171.84;5027804;28;20534;-76
2022/06/09 07:29:49;;;;;;;6.47;3.03;;;;;;;13.67;100.00;95171.75;5031934;28;20091;-75
2022/06/09 07:32:16;;;;;;;6.22;2.92;;;;;;;13.74;100.00;95174.00;5016690;28;20431;-76
2022/06/09 07:34:41;;;;;;;6.40;3.33;;;;;;;13.77;100.00;95168.88;5023216;28;20061;-76
2022/06/09 07:37:07;;;;;;;7.47;3.10;;;;;;;13.97;100.00;95177.47;5028029;28;20099;-76
2022/06/09 07:39:33;;;;;;;6.22;2.30;;;;;;;13.96;100.00;95175.91;5026506;28;20061;-75
2022/06/09 07:41:59;;;;;;;5.85;2.45;;;;;;;14.00;100.00;95176.88;5023456;28;20123;-77
2022/06/09 07:44:24;;;;;;;6.63;2.40;;;;;;;14.12;100.00;95178.97;5022692;28;20041;-75
2022/06/09 07:46:50;;;;;;;4.20;2.20;;;;;;;14.09;100.00;95169.78;5028136;28;20556;-76
2022/06/09 07:49:15;;;;;;;5.97;2.33;;;;;;;14.15;100.00;95170.44;5022984;28;20045;-75
2022/06/09 07:51:41;;;;;;;3.90;2.00;;;;;;;14.19;100.00;95171.41;5027601;28;20029;-76
2022/06/09 07:54:07;;;;;;;30.15;3.47;;;;;;;14.13;100.00;95177.91;5024929;28;20038;-73
2022/06/09 07:56:32;;;;;;;7.80;2.40;;;;;;;13.91;100.00;95179.44;5028480;28;20052;-74
2022/06/09 07:59:00;;;;;;;8.32;2.08;;;;;;;13.71;100.00;95195.75;5027080;28;20041;-73
2022/06/09 08:01:27;;;;;;;4.07;1.80;;;;;;;13.34;100.00;95201.72;5024432;28;20047;-73
2022/06/09 08:03:53;;;;;;;12.40;2.40;;;;;;;12.86;100.00;95215.28;5026805;28;20103;-73
2022/06/09 08:06:18;;;;;;;12.90;2.78;;;;;;;12.55;100.00;95215.78;5023925;28;20049;-72
2022/06/09 08:08:44;;;;;;;16.40;2.88;;;;;;;12.44;100.00;95219.66;5024207;28;20041;-71
2022/06/09 08:11:10;;;;;;;6.93;2.70;;;;;;;12.06;100.00;95214.41;5026424;28;20049;-73
2022/06/09 08:13:36;;;;;;;6.25;3.20;;;;;;;12.06;100.00;95224.97;5026235;28;20050;-74
2022/06/09 08:16:04;;;;;;;6.00;3.28;;;;;;;12.00;100.00;95231.38;5026251;28;20127;-74
2022/06/09 08:18:30;;;;;;;13.70;3.75;;;;;;;11.97;100.00;95232.72;5024545;28;20038;-73
2022/06/09 08:20:56;;;;;;;14.25;4.38;;;;;;;11.89;100.00;95231.47;5022594;28;20087;-73
2022/06/09 08:23:24;;;;;;;13.73;4.95;;;;;;;11.90;100.00;95233.03;5027554;28;20046;-74
2022/06/09 08:25:54;;;;;;;14.13;4.78;;;;;;;12.01;100.00;95238.22;5026533;28;20095;-73
2022/06/09 08:28:20;;;;;;;11.00;4.60;;;;;;;11.89;100.00;95236.75;5027113;28;20038;-74
2022/06/09 08:30:52;;;;;;;16.05;5.20;;;;;;;12.03;100.00;95246.63;5027385;28;20069;-74
2022/06/09 08:33:19;;;;;;;14.15;5.10;;;;;;;12.09;100.00;95235.72;5030394;28;20411;-74
2022/06/09 08:35:45;;;;;;;14.93;5.47;;;;;;;12.10;100.00;95252.34;5029148;28;20042;-73
2022/06/09 08:38:11;;;;;;;12.55;5.65;;;;;;;12.19;100.00;95250.63;5027760;28;20060;-80
2022/06/09 08:41:00;;;;;;;15.38;5.65;;;;;;;12.44;100.00;95251.31;5029239;28;20414;-75
2022/06/09 08:43:44;;;;;;;22.38;6.13;;;;;;;12.49;100.00;95251.25;5029719;28;20045;-75
2022/06/09 08:46:48;;;;;;;13.98;5.32;;;;;;;12.47;100.00;95250.75;5024657;28;20038;-75
2022/06/09 08:49:32;;;;;;;16.10;5.93;;;;;;;12.59;100.00;95259.00;5026263;28;20042;-74
2022/06/09 08:52:03;;;;;;;14.88;5.60;;;;;;;12.63;100.00;95270.56;5026212;28;20044;-74
2022/06/09 08:54:36;;;;;;;10.80;5.28;;;;;;;12.58;100.00;95268.00;5027968;28;20499;-75
2022/06/09 08:57:12;;;;;;;10.70;4.63;;;;;;;12.43;100.00;95281.44;5033366;28;20042;-75
2022/06/09 08:59:40;;;;;;;11.00;4.60;;;;;;;12.50;100.00;95287.13;5023000;28;20053;-73
2022/06/09 09:02:30;;;;;;;16.60;5.15;;;;;;;12.59;100.00;95280.13;5022725;28;20507;-74
2022/06/09 09:05:34;;;;;;;9.95;4.63;;;;;;;12.54;100.00;95274.94;5025367;28;20045;-73
2022/06/09 09:08:01;;;;;;;13.20;4.95;;;;;;;12.53;100.00;95289.19;4995468;28;20058;-73
2022/06/09 09:10:44;;;;;;;13.43;5.70;;;;;;;12.60;100.00;95292.25;5027282;28;20041;-74
2022/06/09 09:13:41;;;;;;;12.75;5.32;;;;;;;12.65;100.00;95289.53;5020717;28;20065;-73
2022/06/09 09:16:19;;;;;;;13.88;5.00;;;;;;;12.69;100.00;95294.25;5021854;28;20050;-73
2022/06/09 09:18:58;;;;;;;12.00;4.70;;;;;;;12.75;100.00;95298.38;5029542;28;20041;-73
2022/06/09 09:21:54;;;;;;;15.48;5.22;;;;;;;12.81;100.00;95298.03;5028430;28;20037;-72
2022/06/09 09:24:30;;;;;;;15.77;5.53;;;;;;;12.89;100.00;95299.22;5027265;28;20491;-72
2022/06/09 09:27:14;;;;;;;22.10;4.82;;;;;;;13.06;100.00;95298.66;5027640;28;20531;-73
2022/06/09 09:30:12;;;;;;;15.00;5.45;;;;;;;13.06;100.00;95292.59;5026049;28;20061;-73
2022/06/09 09:32:43;;;;;;;11.48;5.03;;;;;;;13.15;100.00;95294.28;5030328;28;20117;-74
2022/06/09 09:35:33;;;;;;;12.90;5.43;;;;;;;13.14;100.00;95299.84;5020383;28;20045;-73
2022/06/09 09:38:00;;;;;;;11.35;5.22;;;;;;;13.14;100.00;95291.94;5023405;28;20057;-74
2022/06/09 09:40:33;;;;;;;22.27;7.18;;;;;;;13.40;100.00;95291.50;5027140;28;20626;-73
2022/06/09 09:43:05;;;;;;;16.40;6.85;;;;;;;13.51;100.00;95298.19;5027830;28;20056;-74
2022/06/09 09:45:49;;;;;;;12.40;5.18;;;;;;;13.61;100.00;95302.50;5030253;28;20037;-73
2022/06/09 09:48:17;;;;;;;11.73;5.32;;;;;;;13.65;100.00;95304.25;5030342;28;20444;-73
2022/06/09 09:51:13;;;;;;;12.90;4.75;;;;;;;13.59;100.00;95316.03;5029513;28;20037;-76
2022/06/09 09:53:40;;;;;;;;;;;;;;;13.65;100.00;95314.84;5031016;28;20140;-73
2022/06/09 09:56:18;;;;;;;8.70;4.43;;;;;;;13.74;100.00;95316.81;5026834;28;19931;-75
2022/06/09 09:58:46;;;;;;;8.65;4.97;;;;;;;13.81;100.00;95306.63;5029617;28;20049;-76
2022/06/09 10:01:17;;;;;;;8.77;4.60;;;;;;;13.95;100.00;95307.41;5028045;28;20037;-74
2022/06/09 10:09:34;;;;;;;8.63;3.97;;;;;;;13.95;100.00;95312.69;5027847;28;20041;-74
2022/06/09 10:12:11;;;;;;;10.65;3.90;;;;;;;13.69;100.00;95331.69;5027691;28;20049;-75
2022/06/09 10:14:53;;;;;;;9.48;4.03;;;;;;;13.50;100.00;95330.97;5026910;28;20045;-75
2022/06/09 10:17:25;;;;;;;9.13;3.08;;;;;;;13.21;100.00;95353.09;5035510;28;20045;-75
2022/06/09 10:19:58;;;;;;;10.00;3.13;;;;;;;12.86;100.00;95351.81;5028736;28;20144;-75
2022/06/09 10:22:27;;;;;;;6.82;2.80;;;;;;;12.54;100.00;95356.75;5029431;28;20037;-76
2022/06/09 10:25:18;;;;;;;8.27;4.20;;;;;;;12.43;100.00;95355.31;5028564;28;20041;-75
2022/06/09 10:27:49;;;;;;;7.18;3.25;;;;;;;12.43;100.00;95360.59;5028121;28;20037;-77
2022/06/09 10:30:22;;;;;;;10.73;3.17;;;;;;;12.34;100.00;95367.56;5028844;28;20041;-76
2022/06/09 10:33:04;;;;;;;9.07;3.03;;;;;;;12.27;100.00;95367.94;5021645;28;20037;-76
2022/06/09 10:35:50;;;;;;;12.73;3.10;;;;;;;12.27;100.00;95358.16;5027149;28;20086;-74
2022/06/09 10:38:19;;;;;;;7.00;3.17;;;;;;;12.44;100.00;95362.16;5025022;28;20046;-75
2022/06/09 10:40:54;;;;;;;10.95;3.47;;;;;;;12.45;100.00;95353.19;5026835;28;20041;-74
2022/06/09 10:43:36;;;;;;;19.08;3.42;;;;;;;12.62;100.00;95364.03;5027464;28;20041;-76
2022/06/09 10:46:04;;;;;;;9.68;3.97;;;;;;;12.63;100.00;95360.31;5019547;28;21083;-74
2022/06/09 10:57:42;;;;;;;9.48;3.40;;;;;;;12.90;100.00;95353.59;5000935;28;20645;-75
2022/06/09 11:00:14;;;;;;;9.07;3.45;;;;;;;12.96;100.00;95363.00;5027270;28;20038;-75
2022/06/09 11:03:02;;;;;;;10.32;3.85;;;;;;;12.88;100.00;95366.28;5024807;28;20041;-74
2022/06/09 11:05:44;;;;;;;8.73;3.60;;;;;;;12.94;100.00;95365.16;5017499;28;20506;-74
2022/06/09 11:08:15;;;;;;;12.63;4.00;;;;;;;12.86;100.00;95363.16;5027463;28;20042;-75
2022/06/09 11:11:03;;;;;;;10.32;3.72;;;;;;;12.92;100.00;95362.00;5028520;28;20514;-76
2022/06/09 11:13:50;;;;;;;10.27;3.70;;;;;;;13.00;100.00;95357.91;5025583;28;20037;-75
2022/06/09 11:16:25;;;;;;;12.70;3.90;;;;;;;13.02;100.00;95355.78;5027012;28;20045;-75
2022/06/09 11:19:11;;;;;;;11.85;4.35;;;;;;;13.11;100.00;95353.28;5025775;28;20049;-73
2022/06/09 11:21:44;;;;;;;6.03;3.70;;;;;;;13.30;100.00;95361.16;5022545;28;20064;-73
2022/06/09 11:24:37;;;;;;;11.75;4.68;;;;;;;13.51;100.00;95361.63;5023796;28;20049;-74
2022/06/09 11:28:01;;;;;;;11.68;4.28;;;;;;;13.97;100.00;95355.50;5031616;28;20065;-75
2022/06/09 11:30:44;;;;;;;10.48;4.60;;;;;;;14.41;100.00;95349.84;4986047;28;20084;-75
2022/06/09 11:33:35;;;;;;;9.50;4.45;;;;;;;14.58;100.00;95344.72;5020591;28;20127;-75
2022/06/09 11:36:19;;;;;;;10.60;3.60;;;;;;;14.59;100.00;95341.00;5025433;28;20049;-78
2022/06/09 11:39:17;;;;;;;8.68;3.55;;;;;;;14.47;100.00;95349.47;5025423;28;20041;-77
2022/06/09 11:42:17;;;;;;;8.65;3.88;;;;;;;14.22;100.00;95342.81;5024207;28;20045;-76
2022/06/09 11:44:45;;;;;;;9.65;3.60;;;;;;;14.12;100.00;95335.09;5025727;28;20096;-74
2022/06/09 11:47:16;;;;;;;10.05;3.75;;;;;;;14.12;100.00;95329.81;5027697;28;20052;-74
2022/06/09 11:49:48;;;;;;;19.45;4.55;;;;;;;13.94;100.00;95348.16;5026533;28;20108;-74
2022/06/09 11:52:28;;;;;;;19.52;5.00;;;;;;;13.67;100.00;95347.03;5024763;28;20553;-75
2022/06/09 11:54:55;;;;;;;18.35;5.53;;;;;;;13.46;100.00;95343.19;5024666;28;20038;-74
2022/06/09 11:57:31;;;;;;;12.10;4.43;;;;;;;13.29;100.00;95344.53;5027734;28;20046;-74
2022/06/09 12:00:00;;;;;;;15.25;3.75;;;;;;;12.86;100.00;95363.16;5022284;28;20113;-75
2022/06/09 12:02:28;;;;;;;87.55;7.85;;;;;;;12.66;100.00;95364.25;5029154;28;20041;-74